createdAt,value
2023-03-30T00:00:20.860Z,97410.50
2023-03-30T00:01:22.462Z,97415.31
2023-03-30T00:02:24.112Z,97419.47
2023-03-30T00:03:27.472Z,97417.88
2023-03-30T00:04:30.305Z,97411.38
2023-03-30T00:05:32.088Z,97414.56
2023-03-30T00:06:34.233Z,97413.50
2023-03-30T00:07:38.290Z,97415.56
2023-03-30T00:08:39.898Z,97410.22
2023-03-30T00:09:43.494Z,97418.22
2023-03-30T00:10:46.062Z,97418.41
2023-03-30T00:11:47.933Z,97413.00
2023-03-30T00:12:50.824Z,97410.06
2023-03-30T00:13:53.027Z,97412.72
2023-03-30T00:14:54.600Z,97409.47
2023-03-30T00:15:56.471Z,97413.22
2023-03-30T00:16:58.092Z,97405.00
2023-03-30T00:18:00.007Z,97402.75
2023-03-30T00:19:01.605Z,97407.19
2023-03-30T00:20:08.811Z,97407.81
2023-03-30T00:21:11.159Z,97409.88
2023-03-30T00:22:12.833Z,97407.88
2023-03-30T00:23:14.396Z,97403.22
2023-03-30T00:24:15.952Z,97402.75
2023-03-30T00:25:18.318Z,97401.16
2023-03-30T00:26:19.959Z,97397.97
2023-03-30T00:27:21.534Z,97388.13
2023-03-30T00:28:23.294Z,97399.56
2023-03-30T00:29:24.939Z,97386.84
2023-03-30T00:30:26.631Z,97394.84
2023-03-30T00:31:28.197Z,97391.56
2023-03-30T00:32:29.882Z,97390.81
2023-03-30T00:33:44.563Z,97389.72
2023-03-30T00:34:47.674Z,97388.06
2023-03-30T00:35:57.006Z,97388.91
2023-03-30T00:36:58.611Z,97392.69
2023-03-30T00:38:01.589Z,97392.38
2023-03-30T00:39:06.613Z,97387.66
2023-03-30T00:40:10.450Z,97393.50
2023-03-30T00:41:12.370Z,97386.16
2023-03-30T00:42:17.756Z,97385.88
2023-03-30T00:43:19.891Z,97386.84
2023-03-30T00:45:18.889Z,97382.44
2023-03-30T00:46:20.464Z,97370.56
2023-03-30T00:47:22.314Z,97377.00
2023-03-30T00:48:32.059Z,97375.44
2023-03-30T00:49:34.668Z,97380.66
2023-03-30T00:50:40.643Z,97381.66
2023-03-30T00:51:42.785Z,97377.91
2023-03-30T00:52:46.226Z,97377.28
2023-03-30T00:53:50.992Z,97381.03
2023-03-30T00:54:54.477Z,97379.66
2023-03-30T00:55:57.513Z,97375.13
2023-03-30T00:56:59.170Z,97375.69
2023-03-30T00:58:01.735Z,97375.41
2023-03-30T00:59:03.789Z,97370.78
2023-03-30T01:00:09.476Z,97376.91
2023-03-30T01:01:15.204Z,97376.72
2023-03-30T01:02:17.155Z,97372.94
2023-03-30T01:03:31.498Z,97378.69
2023-03-30T01:04:33.743Z,97377.38
2023-03-30T01:05:37.427Z,97365.63
2023-03-30T01:06:40.878Z,97378.00
2023-03-30T01:07:46.246Z,97376.41
2023-03-30T01:08:48.026Z,97382.25
2023-03-30T01:09:50.451Z,97373.94
2023-03-30T01:10:52.734Z,97381.66
2023-03-30T01:11:54.267Z,97381.66
2023-03-30T01:12:55.865Z,97381.66
2023-03-30T01:14:02.024Z,97373.66
2023-03-30T01:15:03.843Z,97380.16
2023-03-30T01:16:28.394Z,97371.78
2023-03-30T01:17:44.244Z,97369.13
2023-03-30T01:19:01.303Z,97374.34
2023-03-30T01:20:41.143Z,97377.09
2023-03-30T01:21:51.615Z,97379.28
2023-03-30T01:22:53.132Z,97367.25
2023-03-30T01:24:15.968Z,97371.97
2023-03-30T01:25:56.551Z,97373.34
2023-03-30T01:27:11.490Z,97372.56
2023-03-30T01:28:18.893Z,97364.06
2023-03-30T01:29:29.416Z,97361.13
2023-03-30T01:30:55.906Z,97362.19
2023-03-30T01:32:41.861Z,97361.91
2023-03-30T01:34:01.405Z,97357.44
2023-03-30T01:35:36.189Z,97357.25
2023-03-30T01:36:37.719Z,97361.88
2023-03-30T01:37:39.230Z,97354.88
2023-03-30T01:39:11.849Z,97355.75
2023-03-30T01:40:52.801Z,97353.19
2023-03-30T01:42:22.144Z,97356.94
2023-03-30T01:43:36.911Z,97361.69
2023-03-30T01:45:04.706Z,97363.84
2023-03-30T01:46:25.369Z,97356.34
2023-03-30T01:47:34.211Z,97356.34
2023-03-30T01:48:49.940Z,97354.34
2023-03-30T01:49:51.465Z,97361.28
2023-03-30T01:50:56.520Z,97370.34
2023-03-30T01:52:21.138Z,97368.66
2023-03-30T01:53:34.883Z,97367.69
2023-03-30T01:54:48.051Z,97360.66
2023-03-30T01:56:01.674Z,97368.66
2023-03-30T01:57:09.447Z,97371.13
2023-03-30T01:58:18.684Z,97362.84
2023-03-30T01:59:31.566Z,97371.84
2023-03-30T02:00:36.396Z,97365.34
2023-03-30T02:01:41.837Z,97370.16
2023-03-30T02:02:55.889Z,97366.69
2023-03-30T02:03:59.100Z,97370.94
2023-03-30T02:05:02.268Z,97369.59
2023-03-30T02:06:10.729Z,97369.59
2023-03-30T02:07:22.497Z,97371.16
2023-03-30T02:08:29.621Z,97364.44
2023-03-30T02:09:34.593Z,97365.72
2023-03-30T02:10:37.576Z,97368.38
2023-03-30T02:11:43.557Z,97369.97
2023-03-30T02:12:46.686Z,97367.22
2023-03-30T02:13:51.082Z,97373.81
2023-03-30T02:14:56.439Z,97368.00
2023-03-30T02:16:03.374Z,97364.25
2023-03-30T02:17:24.758Z,97371.94
2023-03-30T02:18:27.057Z,97364.16
2023-03-30T02:19:30.167Z,97360.91
2023-03-30T02:20:33.218Z,97366.22
2023-03-30T02:21:35.442Z,97365.63
2023-03-30T02:22:37.205Z,97366.03
2023-03-30T02:23:45.362Z,97365.44
2023-03-30T02:24:49.506Z,97366.72
2023-03-30T02:25:51.449Z,97364.25
2023-03-30T02:26:54.446Z,97358.34
2023-03-30T02:27:56.373Z,97357.34
2023-03-30T02:28:58.964Z,97352.59
2023-03-30T02:30:01.096Z,97351.13
2023-03-30T02:31:04.530Z,97364.44
2023-03-30T02:32:06.582Z,97356.97
2023-03-30T02:33:24.009Z,97355.56
2023-03-30T02:35:00.846Z,97367.44
2023-03-30T02:36:20.686Z,97361.91
2023-03-30T02:37:38.688Z,97362.66
2023-03-30T02:39:05.160Z,97365.44
2023-03-30T02:40:21.631Z,97363.25
2023-03-30T02:41:55.579Z,97366.59
2023-03-30T02:43:12.109Z,97370.34
2023-03-30T02:44:16.393Z,97370.34
2023-03-30T02:45:50.152Z,97372.34
2023-03-30T02:47:02.680Z,97371.75
2023-03-30T02:48:34.865Z,97378.25
2023-03-30T02:49:57.454Z,97367.22
2023-03-30T02:51:02.028Z,97367.22
2023-03-30T02:52:19.349Z,97375.03
2023-03-30T02:53:43.205Z,97374.25
2023-03-30T02:55:09.355Z,97372.94
2023-03-30T02:56:38.292Z,97370.16
2023-03-30T02:58:05.492Z,97376.09
2023-03-30T02:59:22.197Z,97366.44
2023-03-30T03:00:30.554Z,97364.84
2023-03-30T03:01:54.033Z,97366.22
2023-03-30T03:03:00.032Z,97363.84
2023-03-30T03:04:04.507Z,97357.91
2023-03-30T03:05:08.743Z,97365.25
2023-03-30T03:06:14.662Z,97367.03
2023-03-30T03:07:18.565Z,97370.38
2023-03-30T03:08:24.294Z,97369.22
2023-03-30T03:09:26.105Z,97368.59
2023-03-30T03:10:27.726Z,97372.94
2023-03-30T03:11:29.298Z,97375.69
2023-03-30T03:12:30.808Z,97381.63
2023-03-30T03:13:32.715Z,97379.66
2023-03-30T03:14:34.274Z,97383.63
2023-03-30T03:15:38.014Z,97376.88
2023-03-30T03:16:39.692Z,97379.16
2023-03-30T03:17:41.855Z,97382.50
2023-03-30T03:18:43.445Z,97374.69
2023-03-30T03:19:44.985Z,97374.31
2023-03-30T03:20:46.531Z,97365.72
2023-03-30T03:21:48.067Z,97364.34
2023-03-30T03:22:49.607Z,97355.44
2023-03-30T03:23:51.166Z,97362.47
2023-03-30T03:24:52.981Z,97362.84
2023-03-30T03:25:54.534Z,97364.44
2023-03-30T03:26:56.781Z,97372.34
2023-03-30T03:27:58.473Z,97380.81
2023-03-30T03:29:00.000Z,97369.56
2023-03-30T03:30:01.680Z,97379.91
2023-03-30T03:31:03.897Z,97378.22
2023-03-30T03:32:05.732Z,97380.03
2023-03-30T03:33:07.338Z,97371.50
2023-03-30T03:34:08.923Z,97371.50
2023-03-30T03:35:11.044Z,97371.13
2023-03-30T03:36:12.647Z,97371.31
2023-03-30T03:37:14.453Z,97373.13
2023-03-30T03:38:16.050Z,97372.72
2023-03-30T03:39:17.801Z,97374.09
2023-03-30T03:40:19.357Z,97378.47
2023-03-30T03:41:20.889Z,97376.91
2023-03-30T03:42:22.498Z,97376.91
2023-03-30T03:43:24.633Z,97378.69
2023-03-30T03:44:26.476Z,97379.47
2023-03-30T03:45:28.048Z,97378.66
2023-03-30T03:46:29.641Z,97379.66
2023-03-30T03:47:34.964Z,97374.72
2023-03-30T03:48:36.630Z,97378.56
2023-03-30T03:49:38.211Z,97374.13
2023-03-30T03:50:39.757Z,97378.06
2023-03-30T03:51:42.005Z,97383.56
2023-03-30T03:52:43.556Z,97374.25
2023-03-30T03:53:45.120Z,97372.47
2023-03-30T03:54:46.670Z,97364.91
2023-03-30T03:55:48.335Z,97366.78
2023-03-30T03:56:49.926Z,97363.66
2023-03-30T03:57:51.518Z,97372.53
2023-03-30T03:58:53.506Z,97370.56
2023-03-30T03:59:57.047Z,97364.63
2023-03-30T04:01:03.365Z,97359.69
2023-03-30T04:02:05.723Z,97369.81
2023-03-30T04:03:07.733Z,97373.44
2023-03-30T04:04:09.427Z,97371.06
2023-03-30T04:05:11.657Z,97367.13
2023-03-30T04:06:13.273Z,97359.22
2023-03-30T04:07:14.830Z,97363.47
2023-03-30T04:08:18.141Z,97363.38
2023-03-30T04:09:21.499Z,97359.13
2023-03-30T04:10:23.707Z,97362.78
2023-03-30T04:11:26.678Z,97364.94
2023-03-30T04:12:31.432Z,97367.91
2023-03-30T04:13:32.978Z,97371.84
2023-03-30T04:14:35.076Z,97375.22
2023-03-30T04:15:36.773Z,97373.06
2023-03-30T04:16:38.455Z,97373.28
2023-03-30T04:17:40.171Z,97374.50
2023-03-30T04:18:41.809Z,97374.41
2023-03-30T04:19:43.351Z,97380.44
2023-03-30T04:20:44.995Z,97383.47
2023-03-30T04:21:49.571Z,97385.78
2023-03-30T04:22:53.371Z,97391.22
2023-03-30T04:23:55.184Z,97389.16
2023-03-30T04:24:57.002Z,97389.84
2023-03-30T04:25:58.632Z,97387.19
2023-03-30T04:27:00.167Z,97395.69
2023-03-30T04:28:01.732Z,97387.59
2023-03-30T04:29:04.976Z,97390.72
2023-03-30T04:30:07.228Z,97390.34
2023-03-30T04:31:10.682Z,97392.09
2023-03-30T04:32:12.834Z,97392.09
2023-03-30T04:33:15.110Z,97388.94
2023-03-30T04:34:21.779Z,97382.13
2023-03-30T04:35:23.405Z,97387.97
2023-03-30T04:36:24.965Z,97390.91
2023-03-30T04:37:30.496Z,97389.94
2023-03-30T04:38:32.842Z,97393.50
2023-03-30T04:39:34.400Z,97393.88
2023-03-30T04:40:36.814Z,97395.75
2023-03-30T04:41:38.527Z,97396.47
2023-03-30T04:42:40.126Z,97396.94
2023-03-30T04:43:41.715Z,97398.53
2023-03-30T04:44:43.278Z,97401.19
2023-03-30T04:45:48.591Z,97401.00
2023-03-30T04:46:50.530Z,97403.38
2023-03-30T04:47:52.156Z,97403.59
2023-03-30T04:48:53.709Z,97404.56
2023-03-30T04:49:55.501Z,97403.59
2023-03-30T04:50:57.025Z,97408.50
2023-03-30T04:51:58.729Z,97396.44
2023-03-30T04:53:00.476Z,97405.72
2023-03-30T04:54:02.428Z,97401.78
2023-03-30T04:55:04.227Z,97409.47
2023-03-30T04:56:06.725Z,97413.78
2023-03-30T04:57:08.376Z,97403.13
2023-03-30T04:58:11.894Z,97403.72
2023-03-30T04:59:13.457Z,97407.56
2023-03-30T05:00:17.517Z,97404.50
2023-03-30T05:01:19.317Z,97407.75
2023-03-30T05:02:20.951Z,97407.22
2023-03-30T05:03:23.609Z,97407.81
2023-03-30T05:04:25.640Z,97410.78
2023-03-30T05:05:27.224Z,97410.91
2023-03-30T05:06:29.694Z,97414.56
2023-03-30T05:07:31.229Z,97408.25
2023-03-30T05:08:33.484Z,97407.44
2023-03-30T05:09:35.664Z,97408.03
2023-03-30T05:10:37.233Z,97407.09
2023-03-30T05:11:39.691Z,97403.31
2023-03-30T05:12:41.275Z,97408.63
2023-03-30T05:13:42.846Z,97407.00
2023-03-30T05:14:44.418Z,97410.06
2023-03-30T05:15:52.567Z,97403.34
2023-03-30T05:16:54.146Z,97407.88
2023-03-30T05:17:55.796Z,97404.25
2023-03-30T05:18:57.842Z,97416.06
2023-03-30T05:19:59.467Z,97413.78
2023-03-30T05:21:01.039Z,97416.38
2023-03-30T05:22:02.686Z,97414.38
2023-03-30T05:23:04.234Z,97404.81
2023-03-30T05:24:07.827Z,97405.88
2023-03-30T05:25:10.033Z,97415.00
2023-03-30T05:26:11.568Z,97411.03
2023-03-30T05:27:13.782Z,97417.34
2023-03-30T05:28:17.180Z,97419.91
2023-03-30T05:29:18.780Z,97418.84
2023-03-30T05:30:20.697Z,97407.88
2023-03-30T05:31:22.840Z,97408.28
2023-03-30T05:32:25.018Z,97407.72
2023-03-30T05:33:27.213Z,97402.94
2023-03-30T05:34:28.976Z,97403.03
2023-03-30T05:35:31.014Z,97414.03
2023-03-30T05:36:32.557Z,97399.09
2023-03-30T05:37:34.135Z,97405.50
2023-03-30T05:38:36.198Z,97409.97
2023-03-30T05:39:37.820Z,97409.88
2023-03-30T05:40:39.304Z,97413.22
2023-03-30T05:41:41.170Z,97417.69
2023-03-30T05:42:42.677Z,97413.44
2023-03-30T05:43:44.246Z,97418.75
2023-03-30T05:44:46.051Z,97415.53
2023-03-30T05:45:47.836Z,97416.50
2023-03-30T05:46:49.653Z,97412.66
2023-03-30T05:47:54.177Z,97414.63
2023-03-30T05:48:55.765Z,97414.06
2023-03-30T05:49:57.424Z,97402.97
2023-03-30T05:51:01.709Z,97408.91
2023-03-30T05:52:04.142Z,97409.91
2023-03-30T05:53:05.640Z,97406.13
2023-03-30T05:54:07.252Z,97408.31
2023-03-30T05:55:09.015Z,97397.25
2023-03-30T05:56:10.811Z,97402.06
2023-03-30T05:57:12.363Z,97410.69
2023-03-30T05:58:14.668Z,97411.66
2023-03-30T05:59:16.304Z,97410.09
2023-03-30T06:00:21.155Z,97414.94
2023-03-30T06:01:22.869Z,97414.81
2023-03-30T06:02:24.838Z,97411.66
2023-03-30T06:03:32.572Z,97414.81
2023-03-30T06:04:34.879Z,97412.25
2023-03-30T06:05:39.323Z,97411.66
2023-03-30T06:06:40.936Z,97422.03
2023-03-30T06:07:43.455Z,97419.38
2023-03-30T06:08:45.187Z,97407.47
2023-03-30T06:09:47.251Z,97405.69
2023-03-30T06:10:56.804Z,97408.69
2023-03-30T06:11:58.690Z,97411.47
2023-03-30T06:13:00.349Z,97410.38
2023-03-30T06:14:01.913Z,97424.13
2023-03-30T06:15:03.833Z,97416.00
2023-03-30T06:16:06.135Z,97423.91
2023-03-30T06:17:08.880Z,97420.16
2023-03-30T06:18:10.811Z,97406.13
2023-03-30T06:19:13.575Z,97413.25
2023-03-30T06:20:15.178Z,97409.66
2023-03-30T06:21:16.812Z,97401.84
2023-03-30T06:22:18.342Z,97406.28
2023-03-30T06:23:19.919Z,97414.06
2023-03-30T06:24:21.729Z,97410.38
2023-03-30T06:25:24.578Z,97413.56
2023-03-30T06:26:26.135Z,97412.94
2023-03-30T06:27:27.708Z,97417.19
2023-03-30T06:28:29.500Z,97416.13
2023-03-30T06:29:31.400Z,97422.00
2023-03-30T06:30:32.993Z,97421.09
2023-03-30T06:31:34.575Z,97423.38
2023-03-30T06:32:36.780Z,97422.66
2023-03-30T06:33:40.367Z,97417.03
2023-03-30T06:34:43.620Z,97419.19
2023-03-30T06:35:50.107Z,97419.19
2023-03-30T06:36:52.274Z,97418.38
2023-03-30T06:37:53.864Z,97423.88
2023-03-30T06:38:55.375Z,97417.56
2023-03-30T06:39:57.350Z,97418.59
2023-03-30T06:41:03.354Z,97412.47
2023-03-30T06:42:06.417Z,97415.31
2023-03-30T06:43:08.629Z,97415.31
2023-03-30T06:44:10.422Z,97416.41
2023-03-30T06:45:12.742Z,97417.19
2023-03-30T06:46:15.540Z,97422.38
2023-03-30T06:47:17.264Z,97420.44
2023-03-30T06:48:20.257Z,97425.97
2023-03-30T06:49:21.813Z,97422.41
2023-03-30T06:50:23.389Z,97427.75
2023-03-30T06:51:24.924Z,97422.00
2023-03-30T06:52:26.499Z,97428.53
2023-03-30T06:53:28.366Z,97427.88
2023-03-30T06:54:29.952Z,97426.59
2023-03-30T06:55:32.072Z,97430.44
2023-03-30T06:56:33.623Z,97426.09
2023-03-30T06:57:35.176Z,97425.25
2023-03-30T06:58:36.731Z,97434.25
2023-03-30T06:59:38.363Z,97428.19
2023-03-30T07:00:39.931Z,97428.06
2023-03-30T07:01:41.950Z,97430.47
2023-03-30T07:02:44.476Z,97429.59
2023-03-30T07:03:46.135Z,97422.38
2023-03-30T07:04:47.918Z,97428.66
2023-03-30T07:05:50.891Z,97421.59
2023-03-30T07:06:52.424Z,97427.38
2023-03-30T07:07:54.766Z,97422.63
2023-03-30T07:08:56.311Z,97425.78
2023-03-30T07:09:57.879Z,97427.72
2023-03-30T07:10:59.701Z,97429.00
2023-03-30T07:12:01.392Z,97425.84
2023-03-30T07:13:02.922Z,97433.88
2023-03-30T07:14:05.496Z,97427.94
2023-03-30T07:15:08.066Z,97423.38
2023-03-30T07:16:09.757Z,97433.16
2023-03-30T07:17:11.596Z,97422.47
2023-03-30T07:18:14.016Z,97425.31
2023-03-30T07:19:16.347Z,97424.06
2023-03-30T07:20:17.954Z,97431.28
2023-03-30T07:21:19.485Z,97425.94
2023-03-30T07:22:21.508Z,97432.72
2023-03-30T07:23:23.126Z,97427.03
2023-03-30T07:24:24.739Z,97423.25
2023-03-30T07:25:27.112Z,97424.84
2023-03-30T07:26:29.412Z,97428.16
2023-03-30T07:27:31.277Z,97425.31
2023-03-30T07:28:33.204Z,97429.72
2023-03-30T07:29:34.726Z,97430.81
2023-03-30T07:30:37.020Z,97430.81
2023-03-30T07:31:38.596Z,97423.25
2023-03-30T07:32:40.279Z,97421.53
2023-03-30T07:33:42.031Z,97428.16
2023-03-30T07:34:44.770Z,97422.31
2023-03-30T07:35:47.552Z,97426.88
2023-03-30T07:36:49.145Z,97424.66
2023-03-30T07:37:51.674Z,97429.22
2023-03-30T07:38:53.368Z,97425.47
2023-03-30T07:39:57.032Z,97423.25
2023-03-30T07:40:58.928Z,97429.56
2023-03-30T07:42:00.582Z,97433.19
2023-03-30T07:43:02.122Z,97424.81
2023-03-30T07:44:03.769Z,97426.38
2023-03-30T07:45:05.839Z,97436.63
2023-03-30T07:46:09.899Z,97435.03
2023-03-30T07:47:11.970Z,97432.81
2023-03-30T07:48:13.546Z,97425.94
2023-03-30T07:49:15.344Z,97427.84
2023-03-30T07:50:17.100Z,97434.94
2023-03-30T07:51:19.614Z,97427.47
2023-03-30T07:52:21.270Z,97432.53
2023-03-30T07:53:22.871Z,97438.03
2023-03-30T07:54:24.647Z,97430.19
2023-03-30T07:55:28.696Z,97425.63
2023-03-30T07:56:30.318Z,97433.19
2023-03-30T07:57:32.127Z,97434.88
2023-03-30T07:58:33.817Z,97431.25
2023-03-30T07:59:35.839Z,97434.69
2023-03-30T08:00:37.347Z,97428.53
2023-03-30T08:01:39.213Z,97431.59
2023-03-30T08:02:41.738Z,97427.78
2023-03-30T08:03:45.154Z,97424.94
2023-03-30T08:04:47.316Z,97418.19
2023-03-30T08:05:54.160Z,97421.84
2023-03-30T08:06:55.749Z,97426.06
2023-03-30T08:07:57.329Z,97420.66
2023-03-30T08:08:58.834Z,97419.19
2023-03-30T08:10:00.616Z,97421.63
2023-03-30T08:11:02.625Z,97417.09
2023-03-30T08:12:04.887Z,97417.91
2023-03-30T08:13:06.634Z,97419.69
2023-03-30T08:14:08.171Z,97421.22
2023-03-30T08:15:10.345Z,97419.31
2023-03-30T08:16:12.727Z,97418.31
2023-03-30T08:17:14.415Z,97419.81
2023-03-30T08:18:16.211Z,97411.81
2023-03-30T08:19:17.740Z,97420.91
2023-03-30T08:20:19.449Z,97414.25
2023-03-30T08:21:22.178Z,97408.94
2023-03-30T08:22:23.711Z,97413.03
2023-03-30T08:23:25.333Z,97410.84
2023-03-30T08:24:26.834Z,97420.28
2023-03-30T08:25:28.778Z,97410.34
2023-03-30T08:26:30.986Z,97409.72
2023-03-30T08:27:33.156Z,97416.06
2023-03-30T08:28:34.996Z,97413.75
2023-03-30T08:29:36.526Z,97407.63
2023-03-30T08:30:38.200Z,97418.91
2023-03-30T08:31:39.781Z,97414.66
2023-03-30T08:32:41.506Z,97411.94
2023-03-30T08:33:43.105Z,97410.41
2023-03-30T08:34:44.777Z,97416.69
2023-03-30T08:35:47.753Z,97419.53
2023-03-30T08:36:49.482Z,97415.22
2023-03-30T08:37:51.211Z,97414.94
2023-03-30T08:38:54.917Z,97414.31
2023-03-30T08:39:56.463Z,97407.25
2023-03-30T08:40:58.884Z,97408.50
2023-03-30T08:42:51.765Z,97405.34
2023-03-30T08:43:59.025Z,97404.91
2023-03-30T08:45:05.464Z,97400.88
2023-03-30T08:46:14.284Z,97393.69
2023-03-30T08:47:22.118Z,97390.97
2023-03-30T08:48:27.391Z,97396.47
2023-03-30T08:49:33.627Z,97388.28
2023-03-30T08:50:36.734Z,97387.81
2023-03-30T08:51:39.470Z,97380.19
2023-03-30T08:52:42.722Z,97381.13
2023-03-30T08:53:44.524Z,97386.38
2023-03-30T08:54:46.120Z,97382.22
2023-03-30T08:56:20.766Z,97381.13
2023-03-30T08:57:37.393Z,97381.22
2023-03-30T08:58:57.162Z,97373.03
2023-03-30T09:00:06.644Z,97368.06
2023-03-30T09:01:25.347Z,97369.97
2023-03-30T09:02:46.446Z,97368.00
2023-03-30T09:03:59.783Z,97361.72
2023-03-30T09:05:14.752Z,97382.19
2023-03-30T09:06:29.145Z,97366.00
2023-03-30T09:07:37.586Z,97354.34
2023-03-30T09:08:39.383Z,97351.31
2023-03-30T09:09:45.509Z,97350.47
2023-03-30T09:10:56.449Z,97345.31
2023-03-30T09:12:05.041Z,97350.38
2023-03-30T09:13:07.639Z,97348.78
2023-03-30T09:14:18.416Z,97353.53
2023-03-30T09:15:25.658Z,97348.47
2023-03-30T09:16:35.914Z,97345.25
2023-03-30T09:18:02.410Z,97341.09
2023-03-30T09:19:09.428Z,97349.06
2023-03-30T09:20:29.602Z,97342.28
2023-03-30T09:21:32.149Z,97347.78
2023-03-30T09:22:39.640Z,97330.16
2023-03-30T09:23:41.247Z,97330.38
2023-03-30T09:24:42.808Z,97334.88
2023-03-30T09:25:53.523Z,97332.13
2023-03-30T09:27:03.499Z,97333.91
2023-03-30T09:28:16.131Z,97332.31
2023-03-30T09:29:24.838Z,97331.44
2023-03-30T09:30:41.014Z,97324.94
2023-03-30T09:31:51.708Z,97323.53
2023-03-30T09:33:13.212Z,97319.09
2023-03-30T09:34:36.646Z,97314.66
2023-03-30T09:35:41.858Z,97322.13
2023-03-30T09:37:12.744Z,97320.75
2023-03-30T09:38:14.409Z,97324.28
2023-03-30T09:39:21.860Z,97314.56
2023-03-30T09:40:50.127Z,97314.13
2023-03-30T09:41:57.816Z,97323.41
2023-03-30T09:43:16.434Z,97321.16
2023-03-30T09:44:35.978Z,97323.41
2023-03-30T09:45:38.124Z,97326.31
2023-03-30T09:46:40.529Z,97312.75
2023-03-30T09:47:42.635Z,97325.66
2023-03-30T09:48:47.086Z,97321.84
2023-03-30T09:49:48.807Z,97310.13
2023-03-30T09:50:50.557Z,97315.97
2023-03-30T09:52:02.318Z,97318.88
2023-03-30T09:53:10.044Z,97333.03
2023-03-30T09:54:14.643Z,97327.75
2023-03-30T09:55:21.891Z,97315.38
2023-03-30T09:56:40.276Z,97326.00
2023-03-30T09:57:43.701Z,97313.13
2023-03-30T09:58:45.391Z,97321.25
2023-03-30T09:59:47.068Z,97314.41
2023-03-30T10:01:12.751Z,97313.13
2023-03-30T10:02:17.374Z,97307.34
2023-03-30T10:03:21.863Z,97303.19
2023-03-30T10:04:23.626Z,97317.50
2023-03-30T10:05:26.313Z,97313.53
2023-03-30T10:06:28.111Z,97304.22
2023-03-30T10:07:34.232Z,97309.78
2023-03-30T10:08:43.108Z,97314.38
2023-03-30T10:09:44.866Z,97315.25
2023-03-30T10:10:54.353Z,97300.69
2023-03-30T10:11:55.931Z,97308.81
2023-03-30T10:13:05.429Z,97295.56
2023-03-30T10:14:28.958Z,97303.41
2023-03-30T10:15:35.480Z,97296.06
2023-03-30T10:16:37.188Z,97307.06
2023-03-30T10:17:41.298Z,97300.25
2023-03-30T10:18:45.542Z,97303.53
2023-03-30T10:19:50.473Z,97302.28
2023-03-30T10:21:05.036Z,97295.66
2023-03-30T10:22:17.745Z,97294.28
2023-03-30T10:23:22.191Z,97294.34
2023-03-30T10:24:26.386Z,97291.06
2023-03-30T10:25:31.596Z,97293.28
2023-03-30T10:26:37.524Z,97290.16
2023-03-30T10:27:41.677Z,97279.41
2023-03-30T10:28:56.580Z,97279.53
2023-03-30T10:29:58.284Z,97286.44
2023-03-30T10:31:03.513Z,97283.50
2023-03-30T10:32:21.412Z,97273.03
2023-03-30T10:33:24.029Z,97280.09
2023-03-30T10:34:40.271Z,97275.06
2023-03-30T10:35:42.102Z,97277.38
2023-03-30T10:36:49.291Z,97260.69
2023-03-30T10:37:56.969Z,97269.44
2023-03-30T10:39:24.713Z,97272.19
2023-03-30T10:40:32.394Z,97263.16
2023-03-30T10:41:37.090Z,97265.16
2023-03-30T10:42:40.305Z,97261.81
2023-03-30T10:43:42.556Z,97257.56
2023-03-30T10:44:53.661Z,97269.13
2023-03-30T10:46:16.737Z,97256.50
2023-03-30T10:47:37.884Z,97257.88
2023-03-30T10:49:01.286Z,97265.72
2023-03-30T10:50:12.290Z,97252.88
2023-03-30T10:51:33.120Z,97265.41
2023-03-30T10:52:59.459Z,97262.47
2023-03-30T10:54:19.459Z,97266.69
2023-03-30T10:55:33.055Z,97259.91
2023-03-30T10:56:34.697Z,97250.66
2023-03-30T10:57:50.468Z,97259.47
2023-03-30T10:59:28.922Z,97260.59
2023-03-30T11:00:31.383Z,97261.63
2023-03-30T11:01:45.940Z,97256.25
2023-03-30T11:02:59.463Z,97256.06
2023-03-30T11:04:20.330Z,97255.38
2023-03-30T11:05:51.328Z,97248.84
2023-03-30T11:06:57.000Z,97245.38
2023-03-30T11:08:05.071Z,97247.19
2023-03-30T11:09:14.565Z,97249.28
2023-03-30T11:10:31.957Z,97242.56
2023-03-30T11:12:01.214Z,97233.06
2023-03-30T11:13:07.022Z,97226.22
2023-03-30T11:14:16.889Z,97237.09
2023-03-30T11:15:27.248Z,97243.09
2023-03-30T11:16:37.622Z,97228.19
2023-03-30T11:17:53.588Z,97234.44
2023-03-30T11:19:15.070Z,97221.41
2023-03-30T11:20:24.138Z,97223.84
2023-03-30T11:21:31.984Z,97223.28
2023-03-30T11:22:41.667Z,97212.22
2023-03-30T11:24:00.117Z,97216.56
2023-03-30T11:25:09.496Z,97211.31
2023-03-30T11:26:15.863Z,97207.56
2023-03-30T11:27:26.686Z,97217.78
2023-03-30T11:28:37.356Z,97213.06
2023-03-30T11:29:48.578Z,97212.66
2023-03-30T11:30:58.325Z,97215.63
2023-03-30T11:32:24.640Z,97213.06
2023-03-30T11:33:38.974Z,97216.63
2023-03-30T11:34:46.287Z,97215.09
2023-03-30T11:36:05.356Z,97206.78
2023-03-30T11:37:24.746Z,97210.28
2023-03-30T11:38:35.437Z,97202.50
2023-03-30T11:39:42.794Z,97202.75
2023-03-30T11:40:47.600Z,97197.94
2023-03-30T11:42:12.789Z,97199.91
2023-03-30T11:43:17.707Z,97198.16
2023-03-30T11:44:19.333Z,97190.63
2023-03-30T11:45:43.757Z,97196.13
2023-03-30T11:47:02.032Z,97194.25
2023-03-30T11:48:06.929Z,97183.94
2023-03-30T11:49:46.841Z,97179.81
2023-03-30T11:51:07.232Z,97183.75
2023-03-30T11:52:47.070Z,97184.53
2023-03-30T11:54:07.390Z,97183.66
2023-03-30T11:55:18.118Z,97170.97
2023-03-30T11:56:37.310Z,97174.00
2023-03-30T11:57:51.995Z,97172.00
2023-03-30T11:59:29.120Z,97179.69
2023-03-30T12:00:42.834Z,97172.00
2023-03-30T12:02:02.866Z,97171.06
2023-03-30T12:03:42.932Z,97179.88
2023-03-30T12:04:45.440Z,97168.50
2023-03-30T12:05:53.433Z,97163.72
2023-03-30T12:06:59.108Z,97160.81
2023-03-30T12:08:37.718Z,97167.78
2023-03-30T12:09:48.073Z,97165.94
2023-03-30T12:10:57.980Z,97164.22
2023-03-30T12:12:15.928Z,97165.59
2023-03-30T12:13:19.671Z,97171.22
2023-03-30T12:14:46.691Z,97167.06
2023-03-30T12:15:55.959Z,97167.44
2023-03-30T12:17:03.991Z,97170.03
2023-03-30T12:18:11.632Z,97167.09
2023-03-30T12:19:19.444Z,97166.63
2023-03-30T12:20:54.753Z,97167.63
2023-03-30T12:22:07.060Z,97164.97
2023-03-30T12:23:08.809Z,97161.84
2023-03-30T12:24:20.173Z,97166.81
2023-03-30T12:25:59.060Z,97161.66
2023-03-30T12:27:06.135Z,97158.38
2023-03-30T12:28:16.468Z,97163.00
2023-03-30T12:30:29.151Z,97165.56
2023-03-30T12:31:52.578Z,97164.91
2023-03-30T12:33:00.808Z,97151.13
2023-03-30T12:34:06.975Z,97152.91
2023-03-30T12:35:46.560Z,97152.75
2023-03-30T12:37:00.763Z,97157.00
2023-03-30T12:38:06.000Z,97157.34
2023-03-30T12:39:17.654Z,97144.06
2023-03-30T12:40:22.257Z,97146.41
2023-03-30T12:41:26.798Z,97139.81
2023-03-30T12:42:36.623Z,97136.75
2023-03-30T12:43:51.988Z,97136.88
2023-03-30T12:45:15.168Z,97141.50
2023-03-30T12:46:26.473Z,97131.72
2023-03-30T12:47:39.526Z,97130.22
2023-03-30T12:49:05.649Z,97130.28
2023-03-30T12:50:23.047Z,97130.78
2023-03-30T12:51:27.293Z,97123.75
2023-03-30T12:52:46.549Z,97129.00
2023-03-30T12:53:56.794Z,97127.75
2023-03-30T12:55:19.714Z,97117.50
2023-03-30T12:56:37.894Z,97114.50
2023-03-30T12:58:13.743Z,97111.88
2023-03-30T12:59:30.070Z,97112.72
2023-03-30T13:00:41.127Z,97123.84
2023-03-30T13:02:05.031Z,97120.91
2023-03-30T13:03:25.980Z,97116.91
2023-03-30T13:04:34.358Z,97119.81
2023-03-30T13:05:41.255Z,97110.69
2023-03-30T13:06:57.074Z,97108.50
2023-03-30T13:08:04.604Z,97110.25
2023-03-30T13:09:15.384Z,97106.25